sensor_id;sensor_type;location;lat;lon;timestamp;P1;durP1;ratioP1;P2;durP2;ratioP2
20480;SDS011;10399;50.754;3.366;2023-09-19T00:00:44;10.18;;;2.20;;
20480;SDS011;10399;50.754;3.366;2023-09-19T00:03:14;13.38;;;2.78;;
20480;SDS011;10399;50.754;3.366;2023-09-19T00:05:41;10.50;;;3.22;;
20480;SDS011;10399;50.754;3.366;2023-09-19T00:08:12;13.30;;;2.83;;
20480;SDS011;10399;50.754;3.366;2023-09-19T00:10:42;17.88;;;2.92;;
20480;SDS011;10399;50.754;3.366;2023-09-19T00:13:10;25.42;;;3.92;;
20480;SDS011;10399;50.754;3.366;2023-09-19T00:15:43;16.73;;;3.25;;
20480;SDS011;10399;50.754;3.366;2023-09-19T00:18:18;13.48;;;2.92;;
20480;SDS011;10399;50.754;3.366;2023-09-19T00:20:48;20.75;;;4.10;;
20480;SDS011;10399;50.754;3.366;2023-09-19T00:23:16;11.73;;;2.92;;
20480;SDS011;10399;50.754;3.366;2023-09-19T00:25:46;15.88;;;3.13;;
20480;SDS011;10399;50.754;3.366;2023-09-19T00:28:13;15.13;;;2.65;;
20480;SDS011;10399;50.754;3.366;2023-09-19T00:30:43;13.48;;;3.03;;
20480;SDS011;10399;50.754;3.366;2023-09-19T00:33:11;21.70;;;3.08;;
20480;SDS011;10399;50.754;3.366;2023-09-19T00:35:50;12.70;;;2.70;;
20480;SDS011;10399;50.754;3.366;2023-09-19T00:38:18;17.10;;;2.67;;
20480;SDS011;10399;50.754;3.366;2023-09-19T00:40:49;17.27;;;3.30;;
20480;SDS011;10399;50.754;3.366;2023-09-19T00:43:17;16.15;;;2.30;;
20480;SDS011;10399;50.754;3.366;2023-09-19T00:45:46;15.18;;;2.55;;
20480;SDS011;10399;50.754;3.366;2023-09-19T00:48:15;14.82;;;3.05;;
20480;SDS011;10399;50.754;3.366;2023-09-19T00:50:44;19.30;;;2.72;;
20480;SDS011;10399;50.754;3.366;2023-09-19T00:53:14;13.07;;;2.72;;
20480;SDS011;10399;50.754;3.366;2023-09-19T00:55:45;8.60;;;2.20;;
20480;SDS011;10399;50.754;3.366;2023-09-19T00:58:13;12.52;;;2.65;;
20480;SDS011;10399;50.754;3.366;2023-09-19T01:00:41;15.52;;;2.85;;
20480;SDS011;10399;50.754;3.366;2023-09-19T01:03:11;11.73;;;2.53;;
20480;SDS011;10399;50.754;3.366;2023-09-19T01:05:40;14.48;;;2.92;;
20480;SDS011;10399;50.754;3.366;2023-09-19T01:08:07;15.95;;;2.60;;
20480;SDS011;10399;50.754;3.366;2023-09-19T01:10:34;11.38;;;2.83;;
20480;SDS011;10399;50.754;3.366;2023-09-19T01:13:17;19.40;;;3.13;;
20480;SDS011;10399;50.754;3.366;2023-09-19T01:15:59;12.55;;;2.30;;
20480;SDS011;10399;50.754;3.366;2023-09-19T01:21:28;14.65;;;2.78;;
20480;SDS011;10399;50.754;3.366;2023-09-19T01:29:47;15.73;;;2.90;;
20480;SDS011;10399;50.754;3.366;2023-09-19T01:32:21;13.63;;;3.08;;
20480;SDS011;10399;50.754;3.366;2023-09-19T01:34:55;22.38;;;3.75;;
20480;SDS011;10399;50.754;3.366;2023-09-19T01:37:25;12.75;;;2.53;;
20480;SDS011;10399;50.754;3.366;2023-09-19T01:39:58;8.43;;;2.47;;
20480;SDS011;10399;50.754;3.366;2023-09-19T01:42:49;19.40;;;3.10;;
20480;SDS011;10399;50.754;3.366;2023-09-19T01:45:47;14.18;;;2.88;;
20480;SDS011;10399;50.754;3.366;2023-09-19T01:51:09;13.85;;;2.47;;
20480;SDS011;10399;50.754;3.366;2023-09-19T01:53:55;12.98;;;2.40;;
20480;SDS011;10399;50.754;3.366;2023-09-19T01:56:31;11.95;;;2.70;;
20480;SDS011;10399;50.754;3.366;2023-09-19T01:59:05;11.93;;;2.90;;
20480;SDS011;10399;50.754;3.366;2023-09-19T02:01:36;13.80;;;2.70;;
20480;SDS011;10399;50.754;3.366;2023-09-19T02:04:04;11.32;;;2.38;;
20480;SDS011;10399;50.754;3.366;2023-09-19T02:06:32;14.15;;;2.95;;
20480;SDS011;10399;50.754;3.366;2023-09-19T02:09:00;9.27;;;2.38;;
20480;SDS011;10399;50.754;3.366;2023-09-19T02:11:28;16.60;;;3.35;;
20480;SDS011;10399;50.754;3.366;2023-09-19T02:13:56;12.10;;;2.63;;
20480;SDS011;10399;50.754;3.366;2023-09-19T02:16:23;15.13;;;2.53;;
20480;SDS011;10399;50.754;3.366;2023-09-19T02:18:50;13.80;;;2.42;;
20480;SDS011;10399;50.754;3.366;2023-09-19T02:21:18;11.18;;;2.65;;
20480;SDS011;10399;50.754;3.366;2023-09-19T02:23:45;15.23;;;3.25;;
20480;SDS011;10399;50.754;3.366;2023-09-19T02:26:13;18.95;;;3.33;;
20480;SDS011;10399;50.754;3.366;2023-09-19T02:28:40;20.80;;;3.13;;
20480;SDS011;10399;50.754;3.366;2023-09-19T02:31:08;13.90;;;2.92;;
20480;SDS011;10399;50.754;3.366;2023-09-19T02:33:36;11.68;;;2.58;;
20480;SDS011;10399;50.754;3.366;2023-09-19T02:36:04;15.75;;;3.22;;
20480;SDS011;10399;50.754;3.366;2023-09-19T02:38:31;17.17;;;2.50;;
20480;SDS011;10399;50.754;3.366;2023-09-19T02:40:59;13.50;;;2.88;;
20480;SDS011;10399;50.754;3.366;2023-09-19T02:43:26;10.18;;;2.90;;
20480;SDS011;10399;50.754;3.366;2023-09-19T02:45:54;13.75;;;2.97;;
20480;SDS011;10399;50.754;3.366;2023-09-19T02:48:21;13.60;;;2.67;;
20480;SDS011;10399;50.754;3.366;2023-09-19T02:50:51;13.82;;;2.30;;
20480;SDS011;10399;50.754;3.366;2023-09-19T02:53:18;22.23;;;3.25;;
20480;SDS011;10399;50.754;3.366;2023-09-19T02:55:48;17.58;;;3.38;;
20480;SDS011;10399;50.754;3.366;2023-09-19T02:58:16;17.20;;;3.30;;
20480;SDS011;10399;50.754;3.366;2023-09-19T03:00:45;13.50;;;2.88;;
20480;SDS011;10399;50.754;3.366;2023-09-19T03:03:16;12.25;;;3.00;;
20480;SDS011;10399;50.754;3.366;2023-09-19T03:05:44;21.95;;;3.63;;
20480;SDS011;10399;50.754;3.366;2023-09-19T03:08:14;15.82;;;2.80;;
20480;SDS011;10399;50.754;3.366;2023-09-19T03:10:41;18.40;;;3.40;;
20480;SDS011;10399;50.754;3.366;2023-09-19T03:13:08;14.13;;;2.38;;
20480;SDS011;10399;50.754;3.366;2023-09-19T03:15:36;13.65;;;2.22;;
20480;SDS011;10399;50.754;3.366;2023-09-19T03:18:07;18.95;;;2.95;;
20480;SDS011;10399;50.754;3.366;2023-09-19T03:20:34;22.30;;;3.22;;
20480;SDS011;10399;50.754;3.366;2023-09-19T03:23:01;17.15;;;3.40;;
20480;SDS011;10399;50.754;3.366;2023-09-19T03:25:29;15.43;;;2.63;;
20480;SDS011;10399;50.754;3.366;2023-09-19T03:27:56;14.30;;;2.92;;
20480;SDS011;10399;50.754;3.366;2023-09-19T03:30:27;15.38;;;2.70;;
20480;SDS011;10399;50.754;3.366;2023-09-19T03:32:54;15.18;;;3.05;;
20480;SDS011;10399;50.754;3.366;2023-09-19T03:35:21;15.38;;;2.60;;
20480;SDS011;10399;50.754;3.366;2023-09-19T03:37:48;21.10;;;3.22;;
20480;SDS011;10399;50.754;3.366;2023-09-19T03:40:15;14.73;;;3.03;;
20480;SDS011;10399;50.754;3.366;2023-09-19T03:42:43;18.52;;;2.92;;
20480;SDS011;10399;50.754;3.366;2023-09-19T03:45:10;10.93;;;2.40;;
20480;SDS011;10399;50.754;3.366;2023-09-19T03:47:42;17.13;;;2.97;;
20480;SDS011;10399;50.754;3.366;2023-09-19T03:50:09;16.95;;;3.00;;
20480;SDS011;10399;50.754;3.366;2023-09-19T03:52:37;13.80;;;2.47;;
20480;SDS011;10399;50.754;3.366;2023-09-19T03:55:04;16.20;;;3.45;;
20480;SDS011;10399;50.754;3.366;2023-09-19T03:57:32;16.17;;;2.88;;
20480;SDS011;10399;50.754;3.366;2023-09-19T03:59:59;13.70;;;3.38;;
20480;SDS011;10399;50.754;3.366;2023-09-19T04:02:26;13.38;;;2.95;;
20480;SDS011;10399;50.754;3.366;2023-09-19T04:04:59;17.48;;;3.17;;
20480;SDS011;10399;50.754;3.366;2023-09-19T04:07:26;16.08;;;2.90;;
20480;SDS011;10399;50.754;3.366;2023-09-19T04:09:55;20.20;;;2.85;;
20480;SDS011;10399;50.754;3.366;2023-09-19T04:12:22;16.08;;;2.70;;
20480;SDS011;10399;50.754;3.366;2023-09-19T04:14:49;19.88;;;3.78;;
20480;SDS011;10399;50.754;3.366;2023-09-19T04:17:18;18.40;;;2.83;;
20480;SDS011;10399;50.754;3.366;2023-09-19T04:19:45;11.70;;;2.53;;
20480;SDS011;10399;50.754;3.366;2023-09-19T04:22:13;16.92;;;2.78;;
20480;SDS011;10399;50.754;3.366;2023-09-19T04:24:40;16.45;;;3.30;;
20480;SDS011;10399;50.754;3.366;2023-09-19T04:27:07;12.68;;;2.85;;
20480;SDS011;10399;50.754;3.366;2023-09-19T04:29:36;12.73;;;2.70;;
20480;SDS011;10399;50.754;3.366;2023-09-19T04:32:04;11.00;;;2.72;;
20480;SDS011;10399;50.754;3.366;2023-09-19T04:34:32;20.10;;;3.75;;
20480;SDS011;10399;50.754;3.366;2023-09-19T04:37:00;11.73;;;2.47;;
20480;SDS011;10399;50.754;3.366;2023-09-19T04:39:28;14.05;;;3.15;;
20480;SDS011;10399;50.754;3.366;2023-09-19T04:41:55;13.77;;;3.08;;
20480;SDS011;10399;50.754;3.366;2023-09-19T04:44:23;14.05;;;2.80;;
20480;SDS011;10399;50.754;3.366;2023-09-19T04:46:50;17.40;;;3.28;;
20480;SDS011;10399;50.754;3.366;2023-09-19T04:49:17;13.25;;;2.67;;
20480;SDS011;10399;50.754;3.366;2023-09-19T04:51:45;14.32;;;2.28;;
20480;SDS011;10399;50.754;3.366;2023-09-19T04:54:13;15.45;;;3.00;;
20480;SDS011;10399;50.754;3.366;2023-09-19T04:56:41;11.10;;;2.33;;
20480;SDS011;10399;50.754;3.366;2023-09-19T04:59:08;19.70;;;3.35;;
20480;SDS011;10399;50.754;3.366;2023-09-19T05:01:37;11.80;;;2.65;;
20480;SDS011;10399;50.754;3.366;2023-09-19T05:04:04;16.95;;;3.05;;
20480;SDS011;10399;50.754;3.366;2023-09-19T05:06:31;14.68;;;2.85;;
20480;SDS011;10399;50.754;3.366;2023-09-19T05:09:00;12.48;;;3.15;;
20480;SDS011;10399;50.754;3.366;2023-09-19T05:11:27;15.18;;;3.28;;
20480;SDS011;10399;50.754;3.366;2023-09-19T05:13:56;16.45;;;2.42;;
20480;SDS011;10399;50.754;3.366;2023-09-19T05:16:28;14.07;;;2.88;;
20480;SDS011;10399;50.754;3.366;2023-09-19T05:18:56;14.50;;;2.85;;
20480;SDS011;10399;50.754;3.366;2023-09-19T05:21:24;14.68;;;2.58;;
20480;SDS011;10399;50.754;3.366;2023-09-19T05:23:55;17.60;;;2.75;;
20480;SDS011;10399;50.754;3.366;2023-09-19T05:26:23;15.15;;;2.38;;
20480;SDS011;10399;50.754;3.366;2023-09-19T05:28:51;11.10;;;2.17;;
20480;SDS011;10399;50.754;3.366;2023-09-19T05:31:19;11.80;;;2.30;;
20480;SDS011;10399;50.754;3.366;2023-09-19T05:33:47;13.65;;;2.63;;
20480;SDS011;10399;50.754;3.366;2023-09-19T05:36:14;20.63;;;2.80;;
20480;SDS011;10399;50.754;3.366;2023-09-19T05:38:43;11.40;;;3.08;;
20480;SDS011;10399;50.754;3.366;2023-09-19T05:41:11;11.82;;;2.60;;
20480;SDS011;10399;50.754;3.366;2023-09-19T05:43:40;14.98;;;2.78;;
20480;SDS011;10399;50.754;3.366;2023-09-19T05:46:08;15.07;;;2.72;;
20480;SDS011;10399;50.754;3.366;2023-09-19T05:48:35;10.73;;;2.38;;
20480;SDS011;10399;50.754;3.366;2023-09-19T05:51:02;15.43;;;2.42;;
20480;SDS011;10399;50.754;3.366;2023-09-19T05:53:29;15.55;;;2.25;;
20480;SDS011;10399;50.754;3.366;2023-09-19T05:55:56;18.08;;;2.67;;
20480;SDS011;10399;50.754;3.366;2023-09-19T05:58:24;13.23;;;2.70;;
20480;SDS011;10399;50.754;3.366;2023-09-19T06:00:51;13.13;;;2.50;;
20480;SDS011;10399;50.754;3.366;2023-09-19T06:03:18;10.80;;;2.60;;
20480;SDS011;10399;50.754;3.366;2023-09-19T06:05:47;13.82;;;2.78;;
20480;SDS011;10399;50.754;3.366;2023-09-19T06:08:16;16.70;;;2.70;;
20480;SDS011;10399;50.754;3.366;2023-09-19T06:10:43;15.00;;;2.60;;
20480;SDS011;10399;50.754;3.366;2023-09-19T06:13:10;15.38;;;2.85;;
20480;SDS011;10399;50.754;3.366;2023-09-19T06:15:38;12.63;;;2.60;;
20480;SDS011;10399;50.754;3.366;2023-09-19T06:18:10;16.27;;;2.58;;
20480;SDS011;10399;50.754;3.366;2023-09-19T06:20:40;13.55;;;2.97;;
20480;SDS011;10399;50.754;3.366;2023-09-19T06:23:11;13.75;;;2.72;;
20480;SDS011;10399;50.754;3.366;2023-09-19T06:25:38;16.73;;;3.33;;
20480;SDS011;10399;50.754;3.366;2023-09-19T06:28:07;8.93;;;2.10;;
20480;SDS011;10399;50.754;3.366;2023-09-19T06:30:38;11.23;;;2.75;;
20480;SDS011;10399;50.754;3.366;2023-09-19T06:33:08;13.38;;;3.25;;
20480;SDS011;10399;50.754;3.366;2023-09-19T06:35:38;14.30;;;2.17;;
20480;SDS011;10399;50.754;3.366;2023-09-19T06:38:05;12.18;;;2.67;;
20480;SDS011;10399;50.754;3.366;2023-09-19T06:40:34;16.00;;;2.65;;
20480;SDS011;10399;50.754;3.366;2023-09-19T06:43:01;15.30;;;2.85;;
20480;SDS011;10399;50.754;3.366;2023-09-19T06:45:30;13.85;;;2.80;;
20480;SDS011;10399;50.754;3.366;2023-09-19T06:47:58;18.25;;;3.20;;
20480;SDS011;10399;50.754;3.366;2023-09-19T06:50:27;11.35;;;2.70;;
20480;SDS011;10399;50.754;3.366;2023-09-19T06:52:54;12.38;;;3.00;;
20480;SDS011;10399;50.754;3.366;2023-09-19T06:55:24;18.30;;;3.53;;
20480;SDS011;10399;50.754;3.366;2023-09-19T06:57:55;11.90;;;2.22;;
20480;SDS011;10399;50.754;3.366;2023-09-19T07:00:22;13.50;;;2.80;;
20480;SDS011;10399;50.754;3.366;2023-09-19T07:03:00;11.32;;;2.13;;
20480;SDS011;10399;50.754;3.366;2023-09-19T07:05:31;14.13;;;2.78;;
20480;SDS011;10399;50.754;3.366;2023-09-19T07:07:59;15.48;;;3.00;;
20480;SDS011;10399;50.754;3.366;2023-09-19T07:10:27;19.55;;;2.83;;
20480;SDS011;10399;50.754;3.366;2023-09-19T07:12:59;12.07;;;2.40;;
20480;SDS011;10399;50.754;3.366;2023-09-19T07:15:27;12.75;;;2.70;;
20480;SDS011;10399;50.754;3.366;2023-09-19T07:17:55;13.38;;;2.83;;
20480;SDS011;10399;50.754;3.366;2023-09-19T07:20:23;19.52;;;2.85;;
20480;SDS011;10399;50.754;3.366;2023-09-19T07:22:58;6.90;;;2.03;;
20480;SDS011;10399;50.754;3.366;2023-09-19T07:25:30;18.05;;;2.55;;
20480;SDS011;10399;50.754;3.366;2023-09-19T07:27:57;16.90;;;2.88;;
20480;SDS011;10399;50.754;3.366;2023-09-19T07:30:27;13.23;;;2.65;;
20480;SDS011;10399;50.754;3.366;2023-09-19T07:32:55;11.15;;;2.50;;
20480;SDS011;10399;50.754;3.366;2023-09-19T07:35:22;12.63;;;2.70;;
20480;SDS011;10399;50.754;3.366;2023-09-19T07:37:50;12.80;;;2.40;;
20480;SDS011;10399;50.754;3.366;2023-09-19T07:40:18;16.95;;;2.75;;
20480;SDS011;10399;50.754;3.366;2023-09-19T07:42:47;17.40;;;3.28;;
20480;SDS011;10399;50.754;3.366;2023-09-19T07:45:15;9.75;;;2.08;;
20480;SDS011;10399;50.754;3.366;2023-09-19T07:47:47;13.55;;;2.83;;
20480;SDS011;10399;50.754;3.366;2023-09-19T07:50:16;13.38;;;2.67;;
20480;SDS011;10399;50.754;3.366;2023-09-19T07:52:48;13.80;;;3.03;;
20480;SDS011;10399;50.754;3.366;2023-09-19T07:55:19;11.23;;;3.15;;
20480;SDS011;10399;50.754;3.366;2023-09-19T07:57:52;11.90;;;2.15;;
20480;SDS011;10399;50.754;3.366;2023-09-19T08:00:19;9.73;;;2.33;;
20480;SDS011;10399;50.754;3.366;2023-09-19T08:02:46;17.23;;;2.95;;
20480;SDS011;10399;50.754;3.366;2023-09-19T08:05:24;12.88;;;2.17;;
20480;SDS011;10399;50.754;3.366;2023-09-19T08:07:52;12.23;;;2.47;;
20480;SDS011;10399;50.754;3.366;2023-09-19T08:10:23;13.98;;;2.53;;
20480;SDS011;10399;50.754;3.366;2023-09-19T08:12:54;14.65;;;2.60;;
20480;SDS011;10399;50.754;3.366;2023-09-19T08:15:24;11.93;;;2.45;;
20480;SDS011;10399;50.754;3.366;2023-09-19T08:17:51;14.90;;;3.13;;
20480;SDS011;10399;50.754;3.366;2023-09-19T08:20:18;15.85;;;2.58;;
20480;SDS011;10399;50.754;3.366;2023-09-19T08:22:49;8.05;;;2.47;;
20480;SDS011;10399;50.754;3.366;2023-09-19T08:25:23;9.73;;;2.08;;
20480;SDS011;10399;50.754;3.366;2023-09-19T08:27:52;17.92;;;2.58;;
20480;SDS011;10399;50.754;3.366;2023-09-19T08:30:24;17.40;;;2.75;;
20480;SDS011;10399;50.754;3.366;2023-09-19T08:32:57;13.18;;;2.15;;
20480;SDS011;10399;50.754;3.366;2023-09-19T08:35:27;11.60;;;2.55;;
20480;SDS011;10399;50.754;3.366;2023-09-19T08:37:55;12.93;;;2.40;;
20480;SDS011;10399;50.754;3.366;2023-09-19T08:40:22;10.95;;;2.08;;
20480;SDS011;10399;50.754;3.366;2023-09-19T08:42:52;10.73;;;2.15;;
20480;SDS011;10399;50.754;3.366;2023-09-19T08:45:21;8.60;;;2.22;;
20480;SDS011;10399;50.754;3.366;2023-09-19T08:47:53;14.30;;;2.22;;
20480;SDS011;10399;50.754;3.366;2023-09-19T08:50:29;12.95;;;2.75;;
20480;SDS011;10399;50.754;3.366;2023-09-19T08:53:00;12.18;;;2.38;;
20480;SDS011;10399;50.754;3.366;2023-09-19T08:55:30;9.50;;;2.13;;
20480;SDS011;10399;50.754;3.366;2023-09-19T08:58:00;15.90;;;2.08;;
20480;SDS011;10399;50.754;3.366;2023-09-19T09:00:30;8.38;;;2.10;;
20480;SDS011;10399;50.754;3.366;2023-09-19T09:02:58;13.32;;;2.22;;
20480;SDS011;10399;50.754;3.366;2023-09-19T09:05:25;5.57;;;1.73;;
20480;SDS011;10399;50.754;3.366;2023-09-19T09:07:54;12.77;;;2.42;;
20480;SDS011;10399;50.754;3.366;2023-09-19T09:10:23;8.45;;;1.88;;
20480;SDS011;10399;50.754;3.366;2023-09-19T09:12:51;9.35;;;1.92;;
20480;SDS011;10399;50.754;3.366;2023-09-19T09:15:22;6.43;;;1.60;;
20480;SDS011;10399;50.754;3.366;2023-09-19T09:17:50;12.75;;;2.10;;
20480;SDS011;10399;50.754;3.366;2023-09-19T09:20:21;18.48;;;4.85;;
20480;SDS011;10399;50.754;3.366;2023-09-19T09:22:55;31.42;;;11.93;;
20480;SDS011;10399;50.754;3.366;2023-09-19T09:28:24;11.07;;;3.70;;
20480;SDS011;10399;50.754;3.366;2023-09-19T09:30:53;14.50;;;2.58;;
20480;SDS011;10399;50.754;3.366;2023-09-19T09:33:21;13.05;;;2.10;;
20480;SDS011;10399;50.754;3.366;2023-09-19T09:35:56;7.47;;;2.05;;
20480;SDS011;10399;50.754;3.366;2023-09-19T09:38:30;6.85;;;1.50;;
20480;SDS011;10399;50.754;3.366;2023-09-19T09:41:10;6.95;;;1.50;;
20480;SDS011;10399;50.754;3.366;2023-09-19T09:43:42;7.22;;;2.05;;
20480;SDS011;10399;50.754;3.366;2023-09-19T09:46:17;7.35;;;1.60;;
20480;SDS011;10399;50.754;3.366;2023-09-19T09:51:40;5.63;;;1.30;;
20480;SDS011;10399;50.754;3.366;2023-09-19T09:54:29;7.75;;;1.52;;
20480;SDS011;10399;50.754;3.366;2023-09-19T09:57:10;3.95;;;1.33;;
20480;SDS011;10399;50.754;3.366;2023-09-19T09:59:44;7.28;;;1.67;;
20480;SDS011;10399;50.754;3.366;2023-09-19T10:02:29;6.32;;;1.33;;
20480;SDS011;10399;50.754;3.366;2023-09-19T10:05:24;5.60;;;1.33;;
20480;SDS011;10399;50.754;3.366;2023-09-19T10:07:54;7.25;;;1.40;;
20480;SDS011;10399;50.754;3.366;2023-09-19T10:10:31;6.93;;;1.67;;
20480;SDS011;10399;50.754;3.366;2023-09-19T10:13:05;4.30;;;1.00;;
20480;SDS011;10399;50.754;3.366;2023-09-19T10:15:34;4.18;;;1.13;;
20480;SDS011;10399;50.754;3.366;2023-09-19T10:18:06;6.22;;;1.30;;
20480;SDS011;10399;50.754;3.366;2023-09-19T10:20:45;4.70;;;1.38;;
20480;SDS011;10399;50.754;3.366;2023-09-19T10:23:13;4.35;;;1.00;;
20480;SDS011;10399;50.754;3.366;2023-09-19T10:25:48;6.82;;;1.35;;
20480;SDS011;10399;50.754;3.366;2023-09-19T10:28:17;5.32;;;1.10;;
20480;SDS011;10399;50.754;3.366;2023-09-19T10:30:49;3.90;;;1.08;;
20480;SDS011;10399;50.754;3.366;2023-09-19T10:33:20;6.43;;;1.05;;
20480;SDS011;10399;50.754;3.366;2023-09-19T10:35:49;4.32;;;1.20;;
20480;SDS011;10399;50.754;3.366;2023-09-19T10:38:23;5.10;;;0.82;;
20480;SDS011;10399;50.754;3.366;2023-09-19T10:40:55;3.97;;;1.00;;
20480;SDS011;10399;50.754;3.366;2023-09-19T10:43:31;6.65;;;1.23;;
20480;SDS011;10399;50.754;3.366;2023-09-19T10:46:02;3.85;;;1.08;;
20480;SDS011;10399;50.754;3.366;2023-09-19T10:48:33;5.22;;;1.00;;
20480;SDS011;10399;50.754;3.366;2023-09-19T10:56:24;4.25;;;1.00;;
20480;SDS011;10399;50.754;3.366;2023-09-19T10:59:08;6.70;;;1.70;;
20480;SDS011;10399;50.754;3.366;2023-09-19T11:01:55;5.55;;;1.15;;
20480;SDS011;10399;50.754;3.366;2023-09-19T11:07:09;6.13;;;1.30;;
20480;SDS011;10399;50.754;3.366;2023-09-19T11:09:49;5.18;;;1.30;;
20480;SDS011;10399;50.754;3.366;2023-09-19T11:15:07;6.35;;;1.35;;
20480;SDS011;10399;50.754;3.366;2023-09-19T11:30:36;6.47;;;1.40;;
20480;SDS011;10399;50.754;3.366;2023-09-19T11:33:22;6.75;;;1.30;;
20480;SDS011;10399;50.754;3.366;2023-09-19T11:36:08;5.38;;;1.42;;
20480;SDS011;10399;50.754;3.366;2023-09-19T11:44:30;6.15;;;1.42;;
20480;SDS011;10399;50.754;3.366;2023-09-19T11:49:19;7.60;;;1.15;;
20480;SDS011;10399;50.754;3.366;2023-09-19T11:51:56;5.68;;;1.38;;
20480;SDS011;10399;50.754;3.366;2023-09-19T11:54:27;5.05;;;1.58;;
20480;SDS011;10399;50.754;3.366;2023-09-19T11:56:59;7.15;;;1.35;;
20480;SDS011;10399;50.754;3.366;2023-09-19T11:59:27;6.50;;;1.40;;
20480;SDS011;10399;50.754;3.366;2023-09-19T12:01:56;7.45;;;1.40;;
20480;SDS011;10399;50.754;3.366;2023-09-19T12:04:40;6.25;;;1.38;;
20480;SDS011;10399;50.754;3.366;2023-09-19T12:07:16;5.18;;;1.23;;
20480;SDS011;10399;50.754;3.366;2023-09-19T12:12:47;7.28;;;1.30;;
20480;SDS011;10399;50.754;3.366;2023-09-19T12:15:25;13.90;;;1.52;;
20480;SDS011;10399;50.754;3.366;2023-09-19T12:18:00;6.32;;;1.73;;
20480;SDS011;10399;50.754;3.366;2023-09-19T12:20:44;9.80;;;1.45;;
20480;SDS011;10399;50.754;3.366;2023-09-19T12:23:16;5.10;;;1.77;;
20480;SDS011;10399;50.754;3.366;2023-09-19T12:25:44;4.65;;;1.60;;
20480;SDS011;10399;50.754;3.366;2023-09-19T12:28:19;6.55;;;1.50;;
20480;SDS011;10399;50.754;3.366;2023-09-19T12:30:49;6.43;;;1.48;;
20480;SDS011;10399;50.754;3.366;2023-09-19T12:33:18;7.55;;;1.70;;
20480;SDS011;10399;50.754;3.366;2023-09-19T12:35:52;8.73;;;1.60;;
20480;SDS011;10399;50.754;3.366;2023-09-19T12:38:23;3.90;;;1.15;;
20480;SDS011;10399;50.754;3.366;2023-09-19T12:40:51;8.40;;;1.50;;
20480;SDS011;10399;50.754;3.366;2023-09-19T12:43:18;6.10;;;1.85;;
20480;SDS011;10399;50.754;3.366;2023-09-19T12:45:46;6.22;;;1.50;;
20480;SDS011;10399;50.754;3.366;2023-09-19T12:48:18;4.65;;;1.48;;
20480;SDS011;10399;50.754;3.366;2023-09-19T12:51:09;5.72;;;1.48;;
20480;SDS011;10399;50.754;3.366;2023-09-19T12:53:39;5.72;;;1.73;;
20480;SDS011;10399;50.754;3.366;2023-09-19T12:56:13;8.98;;;1.35;;
20480;SDS011;10399;50.754;3.366;2023-09-19T12:58:49;4.00;;;1.30;;
20480;SDS011;10399;50.754;3.366;2023-09-19T13:01:17;8.07;;;1.60;;
20480;SDS011;10399;50.754;3.366;2023-09-19T13:03:44;10.00;;;1.50;;
20480;SDS011;10399;50.754;3.366;2023-09-19T13:06:13;6.93;;;1.60;;
20480;SDS011;10399;50.754;3.366;2023-09-19T13:08:43;3.03;;;1.20;;
20480;SDS011;10399;50.754;3.366;2023-09-19T13:11:16;9.55;;;1.60;;
20480;SDS011;10399;50.754;3.366;2023-09-19T13:13:46;5.43;;;1.42;;
20480;SDS011;10399;50.754;3.366;2023-09-19T13:16:21;12.50;;;1.58;;
20480;SDS011;10399;50.754;3.366;2023-09-19T13:18:51;4.80;;;1.40;;
20480;SDS011;10399;50.754;3.366;2023-09-19T13:21:28;5.05;;;1.48;;
20480;SDS011;10399;50.754;3.366;2023-09-19T13:24:21;8.65;;;1.70;;
20480;SDS011;10399;50.754;3.366;2023-09-19T13:26:52;7.95;;;1.55;;
20480;SDS011;10399;50.754;3.366;2023-09-19T13:29:19;4.90;;;1.60;;
20480;SDS011;10399;50.754;3.366;2023-09-19T13:31:47;5.07;;;1.60;;
20480;SDS011;10399;50.754;3.366;2023-09-19T13:34:15;9.95;;;1.38;;
20480;SDS011;10399;50.754;3.366;2023-09-19T13:36:44;7.03;;;1.50;;
20480;SDS011;10399;50.754;3.366;2023-09-19T13:39:12;5.35;;;1.88;;
20480;SDS011;10399;50.754;3.366;2023-09-19T13:41:47;7.03;;;1.63;;
20480;SDS011;10399;50.754;3.366;2023-09-19T13:44:14;6.72;;;1.75;;
20480;SDS011;10399;50.754;3.366;2023-09-19T13:46:43;8.60;;;1.77;;
20480;SDS011;10399;50.754;3.366;2023-09-19T13:49:13;4.15;;;1.40;;
20480;SDS011;10399;50.754;3.366;2023-09-19T13:51:40;6.82;;;1.52;;
20480;SDS011;10399;50.754;3.366;2023-09-19T13:54:10;5.30;;;1.55;;
20480;SDS011;10399;50.754;3.366;2023-09-19T13:56:40;5.22;;;1.98;;
20480;SDS011;10399;50.754;3.366;2023-09-19T13:59:08;11.93;;;2.03;;
20480;SDS011;10399;50.754;3.366;2023-09-19T14:01:34;9.82;;;1.95;;
20480;SDS011;10399;50.754;3.366;2023-09-19T14:04:02;7.68;;;1.90;;
20480;SDS011;10399;50.754;3.366;2023-09-19T14:06:30;7.47;;;2.20;;
20480;SDS011;10399;50.754;3.366;2023-09-19T14:08:57;5.35;;;1.95;;
20480;SDS011;10399;50.754;3.366;2023-09-19T14:11:24;6.60;;;1.65;;
20480;SDS011;10399;50.754;3.366;2023-09-19T14:13:53;7.22;;;2.13;;
20480;SDS011;10399;50.754;3.366;2023-09-19T14:16:23;7.88;;;2.10;;
20480;SDS011;10399;50.754;3.366;2023-09-19T14:18:51;9.85;;;2.00;;
20480;SDS011;10399;50.754;3.366;2023-09-19T14:21:19;6.35;;;1.92;;
20480;SDS011;10399;50.754;3.366;2023-09-19T14:23:46;6.82;;;1.63;;
20480;SDS011;10399;50.754;3.366;2023-09-19T14:26:13;7.47;;;2.20;;
20480;SDS011;10399;50.754;3.366;2023-09-19T14:28:40;7.72;;;1.80;;
20480;SDS011;10399;50.754;3.366;2023-09-19T14:31:08;8.75;;;2.20;;
20480;SDS011;10399;50.754;3.366;2023-09-19T14:33:36;6.50;;;1.95;;
20480;SDS011;10399;50.754;3.366;2023-09-19T14:36:05;5.60;;;2.05;;
20480;SDS011;10399;50.754;3.366;2023-09-19T14:38:37;10.32;;;1.90;;
20480;SDS011;10399;50.754;3.366;2023-09-19T14:41:06;9.82;;;2.95;;
20480;SDS011;10399;50.754;3.366;2023-09-19T14:43:33;8.90;;;2.38;;
20480;SDS011;10399;50.754;3.366;2023-09-19T14:46:03;8.60;;;2.10;;
20480;SDS011;10399;50.754;3.366;2023-09-19T14:48:34;7.90;;;2.22;;
20480;SDS011;10399;50.754;3.366;2023-09-19T14:51:02;6.07;;;1.88;;
20480;SDS011;10399;50.754;3.366;2023-09-19T14:53:30;8.60;;;2.05;;
20480;SDS011;10399;50.754;3.366;2023-09-19T14:56:01;13.02;;;2.30;;
20480;SDS011;10399;50.754;3.366;2023-09-19T14:58:30;10.65;;;2.25;;
20480;SDS011;10399;50.754;3.366;2023-09-19T15:01:04;13.40;;;2.92;;
20480;SDS011;10399;50.754;3.366;2023-09-19T15:03:40;9.80;;;2.50;;
20480;SDS011;10399;50.754;3.366;2023-09-19T15:06:09;7.50;;;2.15;;
20480;SDS011;10399;50.754;3.366;2023-09-19T15:08:46;9.65;;;2.50;;
20480;SDS011;10399;50.754;3.366;2023-09-19T15:11:15;6.75;;;2.05;;
20480;SDS011;10399;50.754;3.366;2023-09-19T15:13:44;7.57;;;2.00;;
20480;SDS011;10399;50.754;3.366;2023-09-19T15:16:12;6.15;;;1.70;;
20480;SDS011;10399;50.754;3.366;2023-09-19T15:18:41;8.32;;;1.85;;
20480;SDS011;10399;50.754;3.366;2023-09-19T15:21:09;6.90;;;1.48;;
20480;SDS011;10399;50.754;3.366;2023-09-19T15:23:38;7.07;;;1.90;;
20480;SDS011;10399;50.754;3.366;2023-09-19T15:26:07;8.70;;;2.20;;
20480;SDS011;10399;50.754;3.366;2023-09-19T15:28:38;7.60;;;2.33;;
20480;SDS011;10399;50.754;3.366;2023-09-19T15:31:10;9.93;;;2.40;;
20480;SDS011;10399;50.754;3.366;2023-09-19T15:33:39;8.90;;;2.17;;
20480;SDS011;10399;50.754;3.366;2023-09-19T15:36:10;17.05;;;2.35;;
20480;SDS011;10399;50.754;3.366;2023-09-19T15:41:24;8.68;;;2.20;;
20480;SDS011;10399;50.754;3.366;2023-09-19T15:43:53;15.38;;;2.42;;
20480;SDS011;10399;50.754;3.366;2023-09-19T15:46:21;8.60;;;1.88;;
20480;SDS011;10399;50.754;3.366;2023-09-19T15:48:48;10.45;;;2.50;;
20480;SDS011;10399;50.754;3.366;2023-09-19T15:51:16;9.63;;;2.60;;
20480;SDS011;10399;50.754;3.366;2023-09-19T15:53:44;10.57;;;2.30;;